createdAt,value
2018-07-27T00:04:35.784Z,64.00
2018-07-27T00:10:05.501Z,64.20
2018-07-27T00:15:34.760Z,64.50
2018-07-27T00:21:04.717Z,64.70
2018-07-27T00:26:34.044Z,65.00
2018-07-27T00:32:03.330Z,65.00
2018-07-27T00:37:32.670Z,65.20
2018-07-27T00:43:01.899Z,65.60
2018-07-27T00:48:31.234Z,65.80
2018-07-27T00:54:00.484Z,66.00
2018-07-27T00:59:30.590Z,66.20
2018-07-27T01:10:28.841Z,66.90
2018-07-27T01:15:58.115Z,67.10
2018-07-27T01:21:27.429Z,67.40
2018-07-27T01:26:56.656Z,67.60
2018-07-27T01:32:25.911Z,68.00
2018-07-27T01:37:55.102Z,68.20
2018-07-27T01:43:24.469Z,68.70
2018-07-27T01:48:53.709Z,68.70
2018-07-27T01:54:23.011Z,68.90
2018-07-27T01:59:52.511Z,69.20
2018-07-27T02:05:21.870Z,69.40
2018-07-27T02:10:51.175Z,69.60
2018-07-27T02:16:20.584Z,69.80
2018-07-27T02:21:49.940Z,69.90
2018-07-27T02:27:19.346Z,70.00
2018-07-27T02:32:48.685Z,70.50
2018-07-27T02:38:18.019Z,70.70
2018-07-27T02:43:47.214Z,70.90
2018-07-27T02:49:17.215Z,71.00
2018-07-27T02:54:46.421Z,71.20
2018-07-27T03:00:15.755Z,71.30
2018-07-27T03:05:45.121Z,71.60
2018-07-27T03:11:14.534Z,71.80
2018-07-27T03:16:43.827Z,71.80
2018-07-27T03:22:13.160Z,72.00
2018-07-27T03:27:42.404Z,72.10
2018-07-27T03:33:12.883Z,72.30
2018-07-27T03:38:42.382Z,72.40
2018-07-27T03:44:11.596Z,72.60
2018-07-27T03:49:40.901Z,72.70
2018-07-27T03:55:10.135Z,73.00
2018-07-27T04:00:39.323Z,73.00
2018-07-27T04:06:08.645Z,73.10
2018-07-27T04:11:38.053Z,73.30
2018-07-27T04:22:36.199Z,73.50
2018-07-27T04:28:05.637Z,73.60
2018-07-27T04:33:34.963Z,73.60
2018-07-27T04:39:06.345Z,73.60
2018-07-27T04:44:35.736Z,73.80
2018-07-27T04:50:05.297Z,73.80
2018-07-27T04:55:34.512Z,73.70
2018-07-27T05:01:03.755Z,73.70
2018-07-27T05:06:32.967Z,73.70
2018-07-27T05:12:02.267Z,73.60
2018-07-27T05:17:31.541Z,73.40
2018-07-27T05:23:00.760Z,73.20
2018-07-27T05:28:29.973Z,73.20
2018-07-27T05:33:59.249Z,73.10
2018-07-27T05:39:28.511Z,72.90
2018-07-27T05:44:57.803Z,72.70
2018-07-27T05:50:27.083Z,72.40
2018-07-27T05:55:56.392Z,72.80
2018-07-27T06:01:25.669Z,72.00
2018-07-27T06:06:55.010Z,72.40
2018-07-27T06:12:24.357Z,71.40
2018-07-27T06:17:53.730Z,71.20
2018-07-27T06:23:23.015Z,70.80
2018-07-27T06:28:52.462Z,70.40
2018-07-27T06:39:50.752Z,69.90
2018-07-27T06:50:51.527Z,69.60
2018-07-27T06:56:20.844Z,69.30
2018-07-27T07:01:50.385Z,68.20
2018-07-27T07:07:19.708Z,68.00
2018-07-27T07:12:49.319Z,68.00
2018-07-27T07:18:18.600Z,67.10
2018-07-27T07:23:47.907Z,67.00
2018-07-27T07:29:17.137Z,66.40
2018-07-27T07:34:46.420Z,65.90
2018-07-27T07:40:15.745Z,65.80
2018-07-27T07:45:44.980Z,65.30
2018-07-27T07:51:14.206Z,65.20
2018-07-27T07:56:43.588Z,64.20
2018-07-27T08:02:12.824Z,63.00
2018-07-27T08:07:42.061Z,63.10
2018-07-27T08:13:11.378Z,62.50
2018-07-27T08:18:40.908Z,62.10
2018-07-27T08:24:10.122Z,61.20
2018-07-27T08:29:41.490Z,60.80
2018-07-27T08:35:10.803Z,60.00
2018-07-27T08:40:40.198Z,59.30
2018-07-27T08:46:09.496Z,58.90
2018-07-27T08:51:38.849Z,58.20
2018-07-27T08:57:08.092Z,58.30
2018-07-27T09:02:37.330Z,58.00
2018-07-27T09:08:07.251Z,57.80
2018-07-27T09:13:36.536Z,56.80
2018-07-27T09:19:05.901Z,56.60
2018-07-27T09:24:35.140Z,56.50
2018-07-27T09:30:07.294Z,56.90
2018-07-27T09:35:37.744Z,57.50
2018-07-27T09:41:07.167Z,56.50
2018-07-27T09:46:36.849Z,56.60
2018-07-27T09:52:06.355Z,56.90
2018-07-27T09:57:35.726Z,56.20
2018-07-27T10:03:05.120Z,56.50
2018-07-27T10:08:34.423Z,55.80
2018-07-27T10:14:03.742Z,55.30
2018-07-27T10:19:32.970Z,55.50
2018-07-27T10:25:02.323Z,54.00
2018-07-27T10:30:31.592Z,54.00
2018-07-27T10:36:00.876Z,53.30
2018-07-27T10:41:30.073Z,52.30
2018-07-27T10:46:59.290Z,52.30
2018-07-27T10:52:28.540Z,51.00
2018-07-27T10:57:57.730Z,51.40
2018-07-27T11:03:26.955Z,49.50
2018-07-27T11:08:56.214Z,49.60
2018-07-27T11:14:25.864Z,48.60
2018-07-27T11:19:56.145Z,48.10
2018-07-27T11:25:25.819Z,47.90
2018-07-27T11:30:57.322Z,47.20
2018-07-27T11:41:56.704Z,47.20
2018-07-27T11:47:25.977Z,47.20
2018-07-27T11:52:55.215Z,47.40
2018-07-27T11:58:24.781Z,47.30
2018-07-27T12:03:54.140Z,45.80
2018-07-27T12:09:23.422Z,46.60
2018-07-27T12:14:52.808Z,47.10
2018-07-27T12:20:22.091Z,46.50
2018-07-27T12:25:51.620Z,46.30
2018-07-27T12:31:20.828Z,46.10
2018-07-27T12:36:50.283Z,46.00
2018-07-27T12:42:19.587Z,45.20
2018-07-27T12:47:48.913Z,45.40
2018-07-27T12:53:18.474Z,45.10
2018-07-27T12:58:47.696Z,44.40
2018-07-27T13:09:46.041Z,44.80
2018-07-27T13:15:15.279Z,44.60
2018-07-27T13:20:51.847Z,44.30
2018-07-27T13:31:52.701Z,44.50
2018-07-27T13:37:23.335Z,44.70
2018-07-27T13:42:52.829Z,42.70
2018-07-27T13:48:22.195Z,43.60
2018-07-27T13:53:51.496Z,43.00
2018-07-27T13:59:21.134Z,43.80
2018-07-27T14:04:50.798Z,43.50
2018-07-27T14:10:20.076Z,43.30
2018-07-27T14:21:18.611Z,43.10
2018-07-27T14:26:47.993Z,43.60
2018-07-27T14:32:17.355Z,43.10
2018-07-27T14:37:46.689Z,42.40
2018-07-27T14:43:15.955Z,43.60
2018-07-27T14:48:45.289Z,42.60
2018-07-27T14:54:15.335Z,43.10
2018-07-27T14:59:44.585Z,39.40
2018-07-27T15:05:13.865Z,33.60
2018-07-27T15:10:43.128Z,32.30
2018-07-27T15:16:12.384Z,35.60
2018-07-27T15:21:41.584Z,37.20
2018-07-27T15:27:10.864Z,38.10
2018-07-27T15:32:40.149Z,39.10
2018-07-27T15:38:10.495Z,39.60
2018-07-27T15:43:39.944Z,39.50
2018-07-27T15:49:12.764Z,39.70
2018-07-27T15:54:42.009Z,40.30
2018-07-27T16:00:11.283Z,41.20
2018-07-27T16:05:40.479Z,40.80
2018-07-27T16:11:09.718Z,41.10
2018-07-27T16:16:39.030Z,41.20
2018-07-27T16:22:08.290Z,40.90
2018-07-27T16:27:37.514Z,41.40
2018-07-27T16:33:06.717Z,41.20
2018-07-27T16:38:37.122Z,42.00
2018-07-27T16:44:06.551Z,41.90
2018-07-27T16:49:35.879Z,42.50
2018-07-27T16:55:05.115Z,42.90
2018-07-27T17:06:03.262Z,43.30
2018-07-27T17:11:32.473Z,43.00
2018-07-27T17:17:01.726Z,43.30
2018-07-27T17:22:30.881Z,43.60
2018-07-27T17:28:00.115Z,44.20
2018-07-27T17:33:29.307Z,44.30
2018-07-27T17:44:27.550Z,45.20
2018-07-27T17:49:56.904Z,45.50
2018-07-27T17:55:26.337Z,45.60
2018-07-27T18:00:55.597Z,45.80
2018-07-27T18:06:24.926Z,46.10
2018-07-27T18:11:54.177Z,46.80
2018-07-27T18:17:23.450Z,47.10
2018-07-27T18:22:52.734Z,47.20
2018-07-27T18:28:22.049Z,47.50
2018-07-27T18:33:51.372Z,47.80
2018-07-27T18:39:20.665Z,48.50
2018-07-27T18:44:49.997Z,48.40
2018-07-27T18:50:19.347Z,48.60
2018-07-27T18:55:48.621Z,49.00
2018-07-27T19:01:17.923Z,49.40
2018-07-27T19:06:47.310Z,49.70
2018-07-27T19:12:16.608Z,50.20
2018-07-27T19:17:45.827Z,50.50
2018-07-27T19:28:43.969Z,51.40
2018-07-27T19:34:13.657Z,51.90
2018-07-27T19:39:42.962Z,52.30
2018-07-27T19:50:41.273Z,53.20
2018-07-27T19:56:10.542Z,53.50
2018-07-27T20:01:39.814Z,53.90
2018-07-27T20:07:09.058Z,54.20
2018-07-27T20:12:39.484Z,54.50
2018-07-27T20:18:08.812Z,54.90
2018-07-27T20:23:38.105Z,55.20
2018-07-27T20:29:07.317Z,55.50
2018-07-27T20:34:36.545Z,55.90
2018-07-27T20:45:35.731Z,56.40
2018-07-27T20:51:05.016Z,56.50
2018-07-27T20:56:34.233Z,56.70
2018-07-27T21:02:03.451Z,56.90
2018-07-27T21:07:32.980Z,57.20
2018-07-27T21:13:02.214Z,57.30
2018-07-27T21:18:31.479Z,57.60
2018-07-27T21:24:00.719Z,57.80
2018-07-27T21:29:31.024Z,58.10
2018-07-27T21:35:00.425Z,58.20
2018-07-27T21:40:29.711Z,58.70
2018-07-27T21:45:59.057Z,59.10
2018-07-27T21:51:28.599Z,59.40
2018-07-27T21:56:57.917Z,59.60
2018-07-27T22:02:28.247Z,60.10
2018-07-27T22:07:57.570Z,60.60
2018-07-27T22:13:26.933Z,63.40
2018-07-27T22:18:56.197Z,62.30
2018-07-27T22:24:25.591Z,62.00
2018-07-27T22:29:54.907Z,62.30
2018-07-27T22:35:24.208Z,62.40
2018-07-27T22:40:53.482Z,62.70
2018-07-27T22:46:22.791Z,63.00
2018-07-27T22:51:52.102Z,63.40
2018-07-27T22:57:21.744Z,63.50
2018-07-27T23:02:50.974Z,64.00
2018-07-27T23:08:20.262Z,64.20
2018-07-27T23:13:49.557Z,64.40
2018-07-27T23:19:20.054Z,64.90
2018-07-27T23:24:49.372Z,65.10
2018-07-27T23:30:18.748Z,65.50
2018-07-27T23:35:48.009Z,65.70
2018-07-27T23:41:17.353Z,66.10
2018-07-27T23:46:47.752Z,66.00
2018-07-27T23:52:17.016Z,66.40
2018-07-27T23:57:46.361Z,66.40
